Terminal Aerodrome Forecast
Issued by NWS

Home | Current Version | Previous Version | Text Only | Print | Product List | Glossary Off
Versions: 1 2 3 4 5 6 7 8 9 10 11 12 13 14 15 16 17 18 19 20 21 22 23 24 25 26 27 28 29

000
FTUS43 KGRB 141732
TAFRHI
TAF
KRHI 141732Z 1418/1518 09008KT P6SM BKN120
     FM142000 08009G15KT P6SM SHRA OVC050
     FM150100 07010G16KT P6SM SHRA OVC017
     FM150400 02011G19KT 4SM SHRA OVC007
     FM151300 33010G15KT P6SM -SHRA OVC014
     FM151700 32009KT P6SM -SHRA BKN035=

USA.gov is the U.S. government's official web portal to all federal, state and local government web resources and services.